Time;durP1;ratioP1;P1;durP2;ratioP2;P2;SDS_P1;SDS_P2;PMS_P1;PMS_P2;Temp;Humidity;BMP_temperature;BMP_pressure;BME280_temperature;BME280_humidity;BME280_pressure;Samples;Min_cycle;Max_cycle;Signal;HPM_P1;HPM_P2
2022/06/17 00:00:15;;;;;;;;;;;;;;;;;;5074356;28;19959;-85
2022/06/17 00:02:41;;;;;;;;;;;;;;;;;;5057642;28;19904;-85
2022/06/17 00:05:06;;;;;;;;;;;;;;;;;;5074342;28;19935;-85
2022/06/17 00:07:31;;;;;;;;;;;;;;;;;;5057694;28;19952;-84
2022/06/17 00:09:57;;;;;;;;;;;;;;;;;;5074200;28;19947;-85
2022/06/17 00:12:22;;;;;;;;;;;;;;;;;;5057407;28;19908;-85
2022/06/17 00:17:31;;;;;;;;;;;;;;;;;;5074043;28;19912;-84
2022/06/17 00:19:56;;;;;;;;;;;;;;;;;;5057490;28;20302;-85
2022/06/17 00:22:22;;;;;;;;;;;;;;;;;;5073686;28;19995;-87
2022/06/17 00:24:47;;;;;;;;;;;;;;;;;;5057268;28;19911;-85
2022/06/17 00:27:12;;;;;;;;;;;;;;;;;;5073758;28;19923;-86
2022/06/17 00:29:38;;;;;;;;;;;;;;;;;;5057244;28;19916;-88
2022/06/17 00:32:04;;;;;;;;;;;;;;;;;;5077147;28;19909;-85
2022/06/17 00:34:29;;;;;;;;;;;;;;;;;;5081162;28;19910;-85
2022/06/17 00:36:54;;;;;;;;;;;;;;;;;;5080360;28;19907;-86
2022/06/17 00:39:20;;;;;;;;;;;;;;;;;;5080255;28;20350;-84
2022/06/17 00:41:45;;;;;;;;;;;;;;;;;;5097349;28;19908;-84
2022/06/17 00:44:10;;;;;;;;;;;;;;;;;;5080417;28;20339;-86
2022/06/17 00:46:36;;;;;;;;;;;;;;;;;;5096875;28;19920;-86
2022/06/17 00:49:01;;;;;;;;;;;;;;;;;;5080056;28;19904;-85
2022/06/17 00:51:27;;;;;;;;;;;;;;;;;;5097138;28;19908;-85
2022/06/17 00:53:52;;;;;;;;;;;;;;;;;;5079567;28;19903;-87
2022/06/17 00:56:17;;;;;;;;;;;;;;;;;;5097522;28;19908;-87
2022/06/17 00:58:42;;;;;;;;;;;;;;;;;;5080072;28;19903;-85
2022/06/17 01:01:08;;;;;;;;;;;;;;;;;;5080382;28;19960;-86
2022/06/17 01:03:33;;;;;;;;;;;;;;;;;;5080049;28;19935;-87
2022/06/17 01:05:58;;;;;;;;;;;;;;;;;;5080052;28;19915;-86
2022/06/17 01:11:18;;;;;;;;;;;;;;;;;;5042893;28;19913;-86
2022/06/17 01:13:44;;;;;;;;;;;;;;;;;;5080016;28;19911;-87
2022/06/17 01:16:09;;;;;;;;;;;;;;;;;;5080038;28;19907;-84
2022/06/17 01:18:35;;;;;;;;;;;;;;;;;;5079600;28;19990;-86
2022/06/17 01:21:06;;;;;;;;;;;;;;;;;;5081096;28;20005;-85
2022/06/17 01:23:32;;;;;;;;;;;;;;;;;;5080290;28;20399;-86
2022/06/17 01:25:57;;;;;;;;;;;;;;;;;;5080483;28;19916;-86
2022/06/17 01:28:22;;;;;;;;;;;;;;;;;;5096630;28;19910;-86
2022/06/17 01:30:48;;;;;;;;;;;;;;;;;;5080229;28;20006;-86
2022/06/17 01:33:13;;;;;;;;;;;;;;;;;;5096590;28;19958;-86
2022/06/17 01:35:38;;;;;;;;;;;;;;;;;;5080015;28;20006;-86
2022/06/17 01:38:04;;;;;;;;;;;;;;;;;;5079970;28;19904;-87
2022/06/17 01:40:29;;;;;;;;;;;;;;;;;;5079939;28;19908;-87
2022/06/17 01:42:55;;;;;;;;;;;;;;;;;;5079716;28;19903;-86
2022/06/17 01:45:20;;;;;;;;;;;;;;;;;;5096731;28;19915;-89
2022/06/17 01:47:46;;;;;;;;;;;;;;;;;;5079841;28;19961;-87
2022/06/17 01:50:11;;;;;;;;;;;;;;;;;;5079946;28;19915;-88
2022/06/17 01:52:36;;;;;;;;;;;;;;;;;;5080139;28;20273;-86
2022/06/17 01:55:02;;;;;;;;;;;;;;;;;;5079794;28;19908;-86
2022/06/17 01:57:27;;;;;;;;;;;;;;;;;;5080187;28;19910;-88
2022/06/17 01:59:53;;;;;;;;;;;;;;;;;;5079749;28;20320;-89
2022/06/17 02:02:19;;;;;;;;;;;;;;;;;;5079990;28;19943;-88
2022/06/17 02:04:45;;;;;;;;;;;;;;;;;;5081136;28;19915;-87
2022/06/17 02:07:10;;;;;;;;;;;;;;;;;;5083780;28;19919;-87
2022/06/17 02:09:36;;;;;;;;;;;;;;;;;;5083767;28;19907;-88
2022/06/17 02:12:02;;;;;;;;;;;;;;;;;;5083873;28;19910;-87
2022/06/17 02:14:29;;;;;;;;;;;;;;;;;;5083680;28;19958;-85
2022/06/17 02:16:54;;;;;;;;;;;;;;;;;;5100425;28;19950;-86
2022/06/17 02:19:28;;;;;;;;;;;;;;;;;;5100517;28;20384;-86
2022/06/17 02:21:54;;;;;;;;;;;;;;;;;;5083177;28;19998;-87
2022/06/17 02:24:19;;;;;;;;;;;;;;;;;;5100083;28;19948;-86
2022/06/17 02:26:44;;;;;;;;;;;;;;;;;;5083254;28;19940;-87
2022/06/17 02:29:09;;;;;;;;;;;;;;;;;;5083203;28;20372;-87
2022/06/17 02:31:35;;;;;;;;;;;;;;;;;;5083483;28;19914;-86
2022/06/17 02:34:00;;;;;;;;;;;;;;;;;;5083346;28;19940;-87
2022/06/17 02:36:26;;;;;;;;;;;;;;;;;;5083475;28;19908;-87
2022/06/17 02:38:52;;;;;;;;;;;;;;;;;;5082604;28;19911;-85
2022/06/17 02:41:19;;;;;;;;;;;;;;;;;;5082616;28;20007;-83
2022/06/17 02:43:46;;;;;;;;;;;;;;;;;;5082944;28;19904;-85
2022/06/17 02:46:12;;;;;;;;;;;;;;;;;;5082573;28;20267;-86
2022/06/17 02:48:37;;;;;;;;;;;;;;;;;;5082559;28;19939;-85
2022/06/17 02:51:02;;;;;;;;;;;;;;;;;;5082622;28;20006;-85
2022/06/17 02:53:28;;;;;;;;;;;;;;;;;;5082208;28;19907;-85
2022/06/17 02:55:54;;;;;;;;;;;;;;;;;;5082683;28;20093;-86
2022/06/17 02:58:19;;;;;;;;;;;;;;;;;;5082792;28;19904;-86
2022/06/17 03:00:44;;;;;;;;;;;;;;;;;;5099665;28;20014;-88
2022/06/17 03:03:10;;;;;;;;;;;;;;;;;;5082964;28;20239;-87
2022/06/17 03:05:36;;;;;;;;;;;;;;;;;;5082575;28;19930;-87
2022/06/17 03:08:06;;;;;;;;;;;;;;;;;;5083204;28;19965;-87
2022/06/17 03:10:33;;;;;;;;;;;;;;;;;;5082854;28;19915;-86
2022/06/17 03:12:59;;;;;;;;;;;;;;;;;;5082382;28;19903;-87
2022/06/17 03:15:24;;;;;;;;;;;;;;;;;;5082172;28;19919;-86
2022/06/17 03:17:49;;;;;;;;;;;;;;;;;;5081153;28;19956;-85
2022/06/17 03:20:15;;;;;;;;;;;;;;;;;;5082164;28;19956;-85
2022/06/17 03:22:40;;;;;;;;;;;;;;;;;;5082349;28;20366;-86
2022/06/17 03:25:05;;;;;;;;;;;;;;;;;;5082197;28;20002;-87
2022/06/17 03:27:30;;;;;;;;;;;;;;;;;;5081649;28;19918;-87
2022/06/17 03:29:56;;;;;;;;;;;;;;;;;;5084628;28;19907;-87
2022/06/17 03:32:21;;;;;;;;;;;;;;;;;;5082161;28;19915;-86
2022/06/17 03:34:47;;;;;;;;;;;;;;;;;;5098880;28;20002;-87
2022/06/17 03:37:12;;;;;;;;;;;;;;;;;;5081627;28;19908;-87
2022/06/17 03:39:38;;;;;;;;;;;;;;;;;;5081852;28;19908;-85
2022/06/17 03:42:03;;;;;;;;;;;;;;;;;;5081494;28;19954;-85
2022/06/17 03:44:28;;;;;;;;;;;;;;;;;;5081613;28;19911;-86
2022/06/17 03:46:57;;;;;;;;;;;;;;;;;;5098326;28;19912;-85
2022/06/17 03:49:23;;;;;;;;;;;;;;;;;;5098405;28;19915;-87
2022/06/17 03:51:48;;;;;;;;;;;;;;;;;;5081844;28;19908;-87
2022/06/17 03:54:13;;;;;;;;;;;;;;;;;;5082058;28;19961;-88
2022/06/17 03:56:39;;;;;;;;;;;;;;;;;;5081988;28;19903;-88
2022/06/17 03:59:05;;;;;;;;;;;;;;;;;;5098700;28;19914;-86
2022/06/17 04:01:31;;;;;;;;;;;;;;;;;;5081954;28;19918;-89
2022/06/17 04:04:02;;;;;;;;;;;;;;;;;;5099181;28;19907;-88
2022/06/17 04:06:29;;;;;;;;;;;;;;;;;;5081986;28;19971;-88
2022/06/17 04:08:55;;;;;;;;;;;;;;;;;;5081715;28;19903;-88
2022/06/17 04:11:21;;;;;;;;;;;;;;;;;;5098366;28;19907;-88
2022/06/17 04:13:46;;;;;;;;;;;;;;;;;;5081489;28;19904;-88
2022/06/17 04:16:12;;;;;;;;;;;;;;;;;;5098310;28;19914;-86
2022/06/17 04:18:37;;;;;;;;;;;;;;;;;;5081435;28;19903;-87
2022/06/17 04:21:02;;;;;;;;;;;;;;;;;;5098256;28;19947;-87
2022/06/17 04:23:28;;;;;;;;;;;;;;;;;;5081573;28;19964;-87
2022/06/17 04:26:06;;;;;;;;;;;;;;;;;;5083091;28;19916;-87
2022/06/17 04:28:31;;;;;;;;;;;;;;;;;;5080322;28;19995;-88
2022/06/17 04:30:57;;;;;;;;;;;;;;;;;;5080987;28;19931;-92
2022/06/17 04:33:23;;;;;;;;;;;;;;;;;;5080744;28;19920;-88
2022/06/17 04:35:48;;;;;;;;;;;;;;;;;;5081190;28;20020;-89
2022/06/17 04:38:13;;;;;;;;;;;;;;;;;;5081297;28;19907;-90
2022/06/17 04:41:14;;;;;;;;;;;;;;;;;;5041931;28;19905;-90
2022/06/17 04:43:47;;;;;;;;;;;;;;;;;;5072967;28;19947;-88
2022/06/17 04:46:14;;;;;;;;;;;;;;;;;;5081047;28;19964;-88
2022/06/17 04:48:40;;;;;;;;;;;;;;;;;;5080803;28;19926;-88
2022/06/17 04:51:06;;;;;;;;;;;;;;;;;;5081010;28;19907;-86
2022/06/17 04:53:31;;;;;;;;;;;;;;;;;;5080397;28;19990;-89
2022/06/17 04:56:29;;;;;;;;;;;;;;;;;;5088913;28;19961;-87
2022/06/17 04:59:13;;;;;;;;;;;;;;;;;;5083670;28;20006;-88
2022/06/17 05:01:39;;;;;;;;;;;;;;;;;;5080600;28;20345;-89
2022/06/17 05:04:13;;;;;;;;;;;;;;;;;;5082111;28;20374;-90
2022/06/17 05:06:47;;;;;;;;;;;;;;;;;;5097601;28;20011;-88
2022/06/17 05:09:13;;;;;;;;;;;;;;;;;;5081069;28;19939;-89
2022/06/17 05:11:39;;;;;;;;;;;;;;;;;;5080783;28;19915;-88
2022/06/17 05:14:05;;;;;;;;;;;;;;;;;;5097402;28;19907;-89
2022/06/17 05:16:31;;;;;;;;;;;;;;;;;;5080672;28;19996;-89
2022/06/17 05:18:57;;;;;;;;;;;;;;;;;;5080709;28;19998;-90
2022/06/17 05:21:22;;;;;;;;;;;;;;;;;;5080512;28;20316;-88
2022/06/17 05:23:50;;;;;;;;;;;;;;;;;;5097221;28;19908;-88
2022/06/17 05:26:18;;;;;;;;;;;;;;;;;;5079908;28;19912;-88
2022/06/17 05:28:54;;;;;;;;;;;;;;;;;;5079855;28;20309;-88
2022/06/17 05:31:28;;;;;;;;;;;;;;;;;;5096669;28;20396;-85
2022/06/17 05:33:57;;;;;;;;;;;;;;;;;;5096284;28;20401;-87
2022/06/17 05:36:22;;;;;;;;;;;;;;;;;;5074366;28;19908;-85
2022/06/17 05:38:49;;;;;;;;;;;;;;;;;;5076212;28;20006;-85
2022/06/17 05:41:16;;;;;;;;;;;;;;;;;;5075964;28;19914;-86
2022/06/17 05:43:41;;;;;;;;;;;;;;;;;;5086060;28;19911;-85
2022/06/17 05:46:13;;;;;;;;;;;;;;;;;;5070096;28;19915;-86
2022/06/17 05:48:53;;;;;;;;;;;;;;;;;;5085826;28;20366;-86
2022/06/17 05:51:48;;;;;;;;;;;;;;;;;;5030924;28;19913;-85
2022/06/17 05:54:39;;;;;;;;;;;;;;;;;;5083448;28;20289;-85
2022/06/17 05:57:06;;;;;;;;;;;;;;;;;;5085689;28;19912;-84
2022/06/17 05:59:31;;;;;;;;;;;;;;;;;;5069192;28;19939;-86
2022/06/17 06:01:57;;;;;;;;;;;;;;;;;;5069351;28;19912;-85
2022/06/17 06:04:42;;;;;;;;;;;;;;;;;;5072307;28;19915;-86
2022/06/17 06:07:09;;;;;;;;;;;;;;;;;;5069061;28;19920;-87
2022/06/17 06:09:34;;;;;;;;;;;;;;;;;;5068703;28;19911;-85
2022/06/17 06:11:59;;;;;;;;;;;;;;;;;;5069989;28;20255;-85
2022/06/17 06:14:25;;;;;;;;;;;;;;;;;;5069899;28;20005;-84
2022/06/17 06:16:50;;;;;;;;;;;;;;;;;;5086424;28;19912;-84
2022/06/17 06:19:17;;;;;;;;;;;;;;;;;;5068254;28;19943;-86
2022/06/17 06:21:42;;;;;;;;;;;;;;;;;;5069026;28;19973;-85
2022/06/17 06:24:07;;;;;;;;;;;;;;;;;;5068750;28;19915;-84
2022/06/17 06:26:34;;;;;;;;;;;;;;;;;;5085426;28;19919;-87
2022/06/17 06:29:20;;;;;;;;;;;;;;;;;;5077529;28;19904;-85
2022/06/17 06:31:48;;;;;;;;;;;;;;;;;;5085848;28;20297;-82
2022/06/17 06:34:42;;;;;;;;;;;;;;;;;;5085078;28;19920;-84
2022/06/17 06:37:10;;;;;;;;;;;;;;;;;;5089266;28;19914;-81
2022/06/17 06:39:35;;;;;;;;;;;;;;;;;;5077834;28;20341;-82
2022/06/17 06:42:00;;;;;;;;;;;;;;;;;;5078131;28;19957;-83
2022/06/17 06:44:26;;;;;;;;;;;;;;;;;;5078276;28;19971;-86
2022/06/17 06:47:19;;;;;;;;;;;;;;;;;;5101949;28;20400;-84
2022/06/17 06:50:02;;;;;;;;;;;;;;;;;;5087524;28;19911;-85
2022/06/17 06:52:28;;;;;;;;;;;;;;;;;;5076947;28;20366;-85
2022/06/17 06:54:53;;;;;;;;;;;;;;;;;;5078853;28;19903;-83
2022/06/17 06:57:19;;;;;;;;;;;;;;;;;;5095400;28;19958;-86
2022/06/17 06:59:45;;;;;;;;;;;;;;;;;;5078127;28;19947;-86
2022/06/17 07:02:10;;;;;;;;;;;;;;;;;;5095326;28;19953;-85
2022/06/17 07:04:38;;;;;;;;;;;;;;;;;;5078839;28;19908;-88
2022/06/17 07:07:13;;;;;;;;;;;;;;;;;;5083492;28;19916;-87
2022/06/17 07:09:41;;;;;;;;;;;;;;;;;;5098941;28;20267;-87
2022/06/17 07:12:06;;;;;;;;;;;;;;;;;;5081923;28;19903;-85
2022/06/17 07:14:32;;;;;;;;;;;;;;;;;;5098907;28;19908;-85
2022/06/17 07:16:57;;;;;;;;;;;;;;;;;;5098620;28;20475;-84
2022/06/17 07:19:22;;;;;;;;;;;;;;;;;;5081725;28;19929;-85
2022/06/17 07:21:48;;;;;;;;;;;;;;;;;;5082012;28;20517;-86
2022/06/17 07:24:15;;;;;;;;;;;;;;;;;;5081577;28;19933;-83
2022/06/17 07:26:40;;;;;;;;;;;;;;;;;;5097837;28;19951;-84
2022/06/17 07:29:06;;;;;;;;;;;;;;;;;;5098323;28;19915;-87
2022/06/17 07:31:31;;;;;;;;;;;;;;;;;;5081745;28;19990;-84
2022/06/17 07:33:57;;;;;;;;;;;;;;;;;;5080895;28;19915;-84
2022/06/17 07:41:52;;;;;;;;;;;;;;;;;;5097913;28;20361;-83
2022/06/17 07:44:17;;;;;;;;;;;;;;;;;;5097560;28;19904;-83
2022/06/17 07:46:43;;;;;;;;;;;;;;;;;;5097630;28;19916;-84
2022/06/17 07:49:08;;;;;;;;;;;;;;;;;;5080659;28;19908;-83
2022/06/17 07:51:34;;;;;;;;;;;;;;;;;;5080587;28;19907;-82
2022/06/17 07:54:00;;;;;;;;;;;;;;;;;;5080463;28;20331;-82
2022/06/17 07:56:25;;;;;;;;;;;;;;;;;;5080595;28;19912;-81
2022/06/17 07:58:50;;;;;;;;;;;;;;;;;;5097473;28;19938;-84
2022/06/17 08:01:15;;;;;;;;;;;;;;;;;;5080981;28;19943;-85
2022/06/17 08:03:41;;;;;;;;;;;;;;;;;;5080045;28;19946;-82
2022/06/17 08:06:06;;;;;;;;;;;;;;;;;;5097183;28;19965;-84
2022/06/17 08:08:33;;;;;;;;;;;;;;;;;;5080377;28;20369;-82
2022/06/17 08:10:59;;;;;;;;;;;;;;;;;;5080045;28;19973;-83
2022/06/17 08:13:24;;;;;;;;;;;;;;;;;;5096772;28;19919;-83
2022/06/17 08:15:49;;;;;;;;;;;;;;;;;;5098637;28;19912;-86
2022/06/17 08:18:15;;;;;;;;;;;;;;;;;;5080085;28;19926;-81
2022/06/17 08:20:41;;;;;;;;;;;;;;;;;;5097181;28;19939;-85
2022/06/17 08:23:06;;;;;;;;;;;;;;;;;;5080376;28;19942;-85
2022/06/17 08:25:32;;;;;;;;;;;;;;;;;;5080449;28;19915;-84
2022/06/17 08:28:02;;;;;;;;;;;;;;;;;;5080624;28;19943;-84
2022/06/17 08:30:34;;;;;;;;;;;;;;;;;;5080683;28;20273;-84
2022/06/17 08:33:01;;;;;;;;;;;;;;;;;;5096581;28;19916;-84
2022/06/17 08:35:26;;;;;;;;;;;;;;;;;;5079543;28;20312;-83
2022/06/17 08:37:52;;;;;;;;;;;;;;;;;;5096277;28;20258;-81
2022/06/17 08:40:17;;;;;;;;;;;;;;;;;;5079544;28;19925;-85
2022/06/17 08:42:43;;;;;;;;;;;;;;;;;;5096370;28;19908;-84
2022/06/17 08:45:08;;;;;;;;;;;;;;;;;;5079528;28;20051;-83
2022/06/17 08:47:35;;;;;;;;;;;;;;;;;;5079353;28;19922;-85
2022/06/17 08:50:00;;;;;;;;;;;;;;;;;;5079713;28;20369;-84
2022/06/17 08:52:26;;;;;;;;;;;;;;;;;;5096663;28;19907;-81
2022/06/17 08:54:51;;;;;;;;;;;;;;;;;;5079341;28;19904;-85
2022/06/17 08:57:16;;;;;;;;;;;;;;;;;;5078894;28;19987;-83
2022/06/17 08:59:41;;;;;;;;;;;;;;;;;;5095977;28;19903;-83
2022/06/17 09:02:07;;;;;;;;;;;;;;;;;;5096050;28;19907;-84
2022/06/17 09:04:32;;;;;;;;;;;;;;;;;;5079168;28;20006;-82
2022/06/17 09:06:57;;;;;;;;;;;;;;;;;;5095885;28;20327;-81
2022/06/17 09:09:23;;;;;;;;;;;;;;;;;;5078814;28;19911;-81
2022/06/17 09:11:48;;;;;;;;;;;;;;;;;;5078934;28;19934;-82
2022/06/17 09:14:14;;;;;;;;;;;;;;;;;;5078134;28;19938;-84
2022/06/17 09:16:39;;;;;;;;;;;;;;;;;;5079114;28;19911;-83
2022/06/17 09:19:04;;;;;;;;;;;;;;;;;;5078820;28;19910;-80
2022/06/17 09:21:30;;;;;;;;;;;;;;;;;;5095510;28;20044;-82
2022/06/17 09:23:55;;;;;;;;;;;;;;;;;;5095425;28;19904;-83
2022/06/17 09:26:20;;;;;;;;;;;;;;;;;;5095147;28;20381;-81
2022/06/17 09:28:45;;;;;;;;;;;;;;;;;;5095641;28;19908;-83
2022/06/17 09:31:11;;;;;;;;;;;;;;;;;;5078841;28;20002;-84
2022/06/17 09:33:36;;;;;;;;;;;;;;;;;;5078548;28;19965;-84
2022/06/17 09:36:01;;;;;;;;;;;;;;;;;;5095443;28;19915;-82
2022/06/17 09:38:26;;;;;;;;;;;;;;;;;;5078357;28;20002;-82
2022/06/17 09:40:52;;;;;;;;;;;;;;;;;;5078448;28;19914;-82
2022/06/17 09:43:17;;;;;;;;;;;;;;;;;;5078370;28;19990;-84
2022/06/17 09:45:42;;;;;;;;;;;;;;;;;;5078476;28;20350;-83
2022/06/17 09:48:08;;;;;;;;;;;;;;;;;;5095145;28;19904;-81
2022/06/17 09:50:33;;;;;;;;;;;;;;;;;;5113841;28;20308;-86
2022/06/17 09:52:58;;;;;;;;;;;;;;;;;;5078603;28;19922;-84
2022/06/17 09:55:24;;;;;;;;;;;;;;;;;;5095471;28;20418;-82
2022/06/17 09:57:50;;;;;;;;;;;;;;;;;;5078469;28;19907;-80
2022/06/17 10:00:15;;;;;;;;;;;;;;;;;;5078109;28;19919;-80
2022/06/17 10:02:40;;;;;;;;;;;;;;;;;;5095080;28;20034;-83
2022/06/17 10:05:05;;;;;;;;;;;;;;;;;;5095231;28;19914;-82
2022/06/17 10:07:31;;;;;;;;;;;;;;;;;;5078119;28;19918;-82
2022/06/17 10:09:56;;;;;;;;;;;;;;;;;;5095380;28;19914;-82
2022/06/17 10:12:21;;;;;;;;;;;;;;;;;;5078172;28;19933;-82
2022/06/17 10:14:47;;;;;;;;;;;;;;;;;;5095164;28;19957;-81
2022/06/17 10:19:56;;;;;;;;;;;;;;;;;;5094805;28;19908;-81
2022/06/17 10:22:21;;;;;;;;;;;;;;;;;;5112881;28;19925;-82
2022/06/17 10:24:47;;;;;;;;;;;;;;;;;;5095082;28;19990;-80
2022/06/17 10:27:12;;;;;;;;;;;;;;;;;;5098166;28;19954;-81
2022/06/17 10:29:37;;;;;;;;;;;;;;;;;;5117114;28;19932;-81
2022/06/17 10:32:02;;;;;;;;;;;;;;;;;;5081442;28;20347;-82
2022/06/17 10:34:28;;;;;;;;;;;;;;;;;;5081660;28;19933;-82
2022/06/17 10:36:54;;;;;;;;;;;;;;;;;;5081450;28;19904;-82
2022/06/17 10:39:20;;;;;;;;;;;;;;;;;;5081778;28;19957;-83
2022/06/17 10:41:45;;;;;;;;;;;;;;;;;;5081319;28;19939;-83
2022/06/17 10:44:11;;;;;;;;;;;;;;;;;;5098667;28;19908;-81
2022/06/17 10:46:39;;;;;;;;;;;;;;;;;;5081344;28;19911;-84
2022/06/17 10:49:04;;;;;;;;;;;;;;;;;;5081429;28;20006;-83
2022/06/17 10:51:29;;;;;;;;;;;;;;;;;;5098431;28;19996;-81
2022/06/17 10:53:54;;;;;;;;;;;;;;;;;;5081495;28;19908;-81
2022/06/17 10:56:20;;;;;;;;;;;;;;;;;;5081829;28;19903;-82
2022/06/17 10:58:45;;;;;;;;;;;;;;;;;;5098533;28;20331;-82
2022/06/17 11:01:11;;;;;;;;;;;;;;;;;;5081234;28;19904;-84
2022/06/17 11:03:36;;;;;;;;;;;;;;;;;;5081050;28;19908;-80
2022/06/17 11:06:03;;;;;;;;;;;;;;;;;;5081390;28;19935;-82
2022/06/17 11:08:28;;;;;;;;;;;;;;;;;;5099189;28;19915;-82
2022/06/17 11:10:53;;;;;;;;;;;;;;;;;;5098968;28;19904;-81
2022/06/17 11:13:19;;;;;;;;;;;;;;;;;;5082112;28;19912;-82
2022/06/17 11:15:44;;;;;;;;;;;;;;;;;;5081705;28;19904;-84
2022/06/17 11:18:09;;;;;;;;;;;;;;;;;;5081471;28;19909;-83
2022/06/17 11:20:34;;;;;;;;;;;;;;;;;;5081784;28;20243;-84
2022/06/17 11:23:00;;;;;;;;;;;;;;;;;;5081878;28;19907;-85
2022/06/17 11:25:25;;;;;;;;;;;;;;;;;;5081758;28;20269;-82
2022/06/17 11:27:50;;;;;;;;;;;;;;;;;;5098345;28;20285;-83
2022/06/17 11:30:15;;;;;;;;;;;;;;;;;;5081428;28;19904;-83
2022/06/17 11:32:41;;;;;;;;;;;;;;;;;;5081049;28;20382;-83
2022/06/17 11:35:06;;;;;;;;;;;;;;;;;;5081378;28;19904;-82
2022/06/17 11:37:31;;;;;;;;;;;;;;;;;;5080684;28;19957;-82
2022/06/17 11:39:56;;;;;;;;;;;;;;;;;;5081496;28;20319;-84
2022/06/17 11:42:24;;;;;;;;;;;;;;;;;;5081023;28;19907;-82
2022/06/17 11:44:49;;;;;;;;;;;;;;;;;;5081276;28;19908;-81
2022/06/17 11:47:14;;;;;;;;;;;;;;;;;;5080444;28;20285;-83
2022/06/17 11:49:39;;;;;;;;;;;;;;;;;;5079478;28;19928;-82
2022/06/17 11:52:05;;;;;;;;;;;;;;;;;;5097551;28;19914;-82
2022/06/17 11:54:32;;;;;;;;;;;;;;;;;;5080585;28;19910;-81
2022/06/17 11:56:57;;;;;;;;;;;;;;;;;;5080887;28;20400;-82
2022/06/17 11:59:22;;;;;;;;;;;;;;;;;;5116163;28;19908;-83
2022/06/17 12:01:48;;;;;;;;;;;;;;;;;;5080565;28;19908;-81
2022/06/17 12:04:13;;;;;;;;;;;;;;;;;;5097199;28;20161;-82
2022/06/17 12:06:38;;;;;;;;;;;;;;;;;;5080886;28;19920;-82
2022/06/17 12:09:03;;;;;;;;;;;;;;;;;;5080805;28;19904;-82
2022/06/17 12:11:29;;;;;;;;;;;;;;;;;;5097793;28;19912;-82
2022/06/17 12:13:54;;;;;;;;;;;;;;;;;;5080606;28;20350;-81
2022/06/17 12:16:19;;;;;;;;;;;;;;;;;;5115507;28;19961;-82
2022/06/17 12:18:45;;;;;;;;;;;;;;;;;;5080571;28;19974;-82
2022/06/17 12:21:10;;;;;;;;;;;;;;;;;;5097441;28;19907;-82
2022/06/17 12:23:35;;;;;;;;;;;;;;;;;;5097363;28;19930;-83
2022/06/17 12:26:00;;;;;;;;;;;;;;;;;;5080743;28;19969;-82
2022/06/17 12:28:26;;;;;;;;;;;;;;;;;;5097144;28;19904;-83
2022/06/17 12:30:51;;;;;;;;;;;;;;;;;;5097136;28;20389;-83
2022/06/17 12:33:16;;;;;;;;;;;;;;;;;;5080051;28;19966;-82
2022/06/17 12:35:42;;;;;;;;;;;;;;;;;;5097152;28;19908;-83
2022/06/17 12:38:07;;;;;;;;;;;;;;;;;;5097165;28;19911;-82
2022/06/17 12:40:32;;;;;;;;;;;;;;;;;;5097549;28;20315;-81
2022/06/17 12:42:58;;;;;;;;;;;;;;;;;;5097066;28;19903;-82
2022/06/17 12:45:23;;;;;;;;;;;;;;;;;;5097157;28;19908;-82
2022/06/17 12:47:48;;;;;;;;;;;;;;;;;;5079580;28;19916;-85
2022/06/17 12:53:15;;;;;;;;;;;;;;;;;;5096748;28;20360;-82
2022/06/17 12:55:40;;;;;;;;;;;;;;;;;;5079857;28;20350;-82
2022/06/17 12:58:05;;;;;;;;;;;;;;;;;;5079861;28;19911;-83
2022/06/17 13:00:30;;;;;;;;;;;;;;;;;;5096824;28;19915;-83
2022/06/17 13:02:56;;;;;;;;;;;;;;;;;;5079773;28;19956;-80
2022/06/17 13:05:22;;;;;;;;;;;;;;;;;;5096671;28;20242;-81
2022/06/17 13:07:47;;;;;;;;;;;;;;;;;;5079235;28;19935;-83
2022/06/17 13:12:56;;;;;;;;;;;;;;;;;;5095550;28;20308;-82
2022/06/17 13:15:22;;;;;;;;;;;;;;;;;;5095930;28;19904;-81
2022/06/17 13:17:47;;;;;;;;;;;;;;;;;;5096365;28;19993;-81
2022/06/17 13:20:12;;;;;;;;;;;;;;;;;;5114683;28;19904;-80
2022/06/17 13:22:38;;;;;;;;;;;;;;;;;;5079253;28;19907;-80
2022/06/17 13:25:03;;;;;;;;;;;;;;;;;;5096446;28;19994;-81
2022/06/17 13:27:30;;;;;;;;;;;;;;;;;;5096194;28;20417;-83
2022/06/17 13:29:55;;;;;;;;;;;;;;;;;;5095910;28;19910;-82
2022/06/17 13:32:20;;;;;;;;;;;;;;;;;;5071934;28;20011;-83
2022/06/17 13:34:46;;;;;;;;;;;;;;;;;;5082006;28;20336;-83
2022/06/17 13:37:11;;;;;;;;;;;;;;;;;;5091831;28;19912;-81
2022/06/17 13:39:36;;;;;;;;;;;;;;;;;;5088311;28;19939;-80
2022/06/17 13:42:01;;;;;;;;;;;;;;;;;;5068788;28;20418;-81
2022/06/17 13:44:28;;;;;;;;;;;;;;;;;;5063319;28;19908;-85
2022/06/17 13:46:56;;;;;;;;;;;;;;;;;;5066401;28;19964;-83
2022/06/17 13:49:21;;;;;;;;;;;;;;;;;;5065412;28;20347;-82
2022/06/17 13:51:48;;;;;;;;;;;;;;;;;;5060901;28;19908;-83
2022/06/17 13:54:14;;;;;;;;;;;;;;;;;;5086199;28;20049;-81
2022/06/17 13:56:39;;;;;;;;;;;;;;;;;;5050046;28;20024;-83
2022/06/17 13:59:04;;;;;;;;;;;;;;;;;;5078934;28;20289;-83
2022/06/17 14:01:30;;;;;;;;;;;;;;;;;;5071972;28;19968;-82
2022/06/17 14:03:56;;;;;;;;;;;;;;;;;;5084252;28;19908;-81
2022/06/17 14:06:22;;;;;;;;;;;;;;;;;;5076152;28;19924;-82
2022/06/17 14:08:47;;;;;;;;;;;;;;;;;;5078045;28;19947;-81
2022/06/17 14:13:59;;;;;;;;;;;;;;;;;;5093220;28;19915;-84
2022/06/17 14:16:24;;;;;;;;;;;;;;;;;;5076123;28;19916;-82
2022/06/17 14:18:50;;;;;;;;;;;;;;;;;;5076216;28;19908;-83
2022/06/17 14:21:15;;;;;;;;;;;;;;;;;;5092275;28;19919;-83
2022/06/17 14:23:41;;;;;;;;;;;;;;;;;;5073554;28;19951;-81
2022/06/17 14:26:06;;;;;;;;;;;;;;;;;;5078981;28;19912;-80
2022/06/17 14:28:31;;;;;;;;;;;;;;;;;;5079354;28;20272;-83
2022/06/17 14:30:56;;;;;;;;;;;;;;;;;;5079381;28;20007;-82
2022/06/17 14:33:22;;;;;;;;;;;;;;;;;;5091693;28;20014;-81
2022/06/17 14:35:47;;;;;;;;;;;;;;;;;;5117117;28;20411;-82
2022/06/17 14:38:12;;;;;;;;;;;;;;;;;;5099475;28;19977;-83
2022/06/17 14:42:01;;;;;;;;;;;;;;;;;;5099241;28;19907;-85
2022/06/17 14:43:23;;;;;;;;;;;;;;;;;;5116134;28;19907;-81
2022/06/17 14:45:48;;;;;;;;;;;;;;;;;;5099061;28;20278;-85
2022/06/17 14:48:13;;;;;;;;;;;;;;;;;;5116420;28;19912;-84
2022/06/17 14:50:39;;;;;;;;;;;;;;;;;;5099113;28;19914;-85
2022/06/17 14:53:04;;;;;;;;;;;;;;;;;;5099151;28;19907;-82
2022/06/17 14:55:29;;;;;;;;;;;;;;;;;;5107132;28;19907;-80
2022/06/17 14:57:55;;;;;;;;;;;;;;;;;;5072858;28;19919;-83
2022/06/17 15:00:20;;;;;;;;;;;;;;;;;;5088701;28;19907;-81
2022/06/17 15:02:45;;;;;;;;;;;;;;;;;;5095901;28;20274;-82
2022/06/17 15:05:10;;;;;;;;;;;;;;;;;;5107536;28;20415;-84
2022/06/17 15:07:36;;;;;;;;;;;;;;;;;;5081208;28;20362;-81
2022/06/17 15:10:01;;;;;;;;;;;;;;;;;;5095374;28;19909;-80
2022/06/17 15:12:26;;;;;;;;;;;;;;;;;;5077542;28;19915;-81
2022/06/17 15:14:51;;;;;;;;;;;;;;;;;;5078329;28;19904;-81
2022/06/17 15:17:17;;;;;;;;;;;;;;;;;;5095501;28;19908;-83
2022/06/17 15:19:43;;;;;;;;;;;;;;;;;;5095372;28;19904;-83
2022/06/17 15:22:08;;;;;;;;;;;;;;;;;;5095684;28;20410;-82
2022/06/17 15:24:35;;;;;;;;;;;;;;;;;;5094594;28;19947;-82
2022/06/17 15:27:01;;;;;;;;;;;;;;;;;;5077014;28;19923;-81
2022/06/17 15:29:27;;;;;;;;;;;;;;;;;;5077182;28;19904;-82
2022/06/17 15:31:52;;;;;;;;;;;;;;;;;;5077235;28;19938;-82
2022/06/17 15:34:17;;;;;;;;;;;;;;;;;;5073509;28;19916;-81
2022/06/17 15:36:43;;;;;;;;;;;;;;;;;;5056879;28;19908;-80
2022/06/17 15:39:08;;;;;;;;;;;;;;;;;;5057098;28;19983;-80
2022/06/17 15:41:34;;;;;;;;;;;;;;;;;;5073535;28;19909;-83
2022/06/17 15:43:59;;;;;;;;;;;;;;;;;;5057955;28;20446;-81
2022/06/17 15:46:24;;;;;;;;;;;;;;;;;;5070700;28;19920;-83
2022/06/17 15:48:49;;;;;;;;;;;;;;;;;;5087294;28;19904;-81
2022/06/17 15:51:15;;;;;;;;;;;;;;;;;;5069642;28;19953;-83
2022/06/17 15:53:43;;;;;;;;;;;;;;;;;;5073526;28;19910;-82
2022/06/17 15:56:08;;;;;;;;;;;;;;;;;;5057252;28;19908;-83
2022/06/17 15:58:33;;;;;;;;;;;;;;;;;;5062393;28;19937;-83
2022/06/17 16:00:59;;;;;;;;;;;;;;;;;;5080000;28;19996;-83
2022/06/17 16:03:24;;;;;;;;;;;;;;;;;;5071131;28;19957;-82
2022/06/17 16:05:49;;;;;;;;;;;;;;;;;;5084844;28;19961;-83
2022/06/17 16:08:14;;;;;;;;;;;;;;;;;;5058438;28;20354;-83
2022/06/17 16:10:40;;;;;;;;;;;;;;;;;;5059187;28;19909;-82
2022/06/17 16:13:05;;;;;;;;;;;;;;;;;;5076260;28;20316;-84
2022/06/17 16:15:30;;;;;;;;;;;;;;;;;;5076750;28;19908;-84
2022/06/17 16:17:57;;;;;;;;;;;;;;;;;;5068454;28;19908;-84
2022/06/17 16:20:22;;;;;;;;;;;;;;;;;;5056233;28;19908;-83
2022/06/17 16:22:47;;;;;;;;;;;;;;;;;;5055438;28;20271;-82
2022/06/17 16:25:13;;;;;;;;;;;;;;;;;;5055522;28;19908;-83
2022/06/17 16:27:38;;;;;;;;;;;;;;;;;;5055355;28;20007;-85
2022/06/17 16:30:03;;;;;;;;;;;;;;;;;;5083838;28;20011;-83
2022/06/17 16:32:29;;;;;;;;;;;;;;;;;;5075595;28;19924;-86
2022/06/17 16:34:54;;;;;;;;;;;;;;;;;;5076560;28;19913;-85
2022/06/17 16:37:19;;;;;;;;;;;;;;;;;;5075865;28;20432;-84
2022/06/17 16:39:45;;;;;;;;;;;;;;;;;;5092582;28;19908;-83
2022/06/17 16:44:56;;;;;;;;;;;;;;;;;;5075017;28;19966;-83
2022/06/17 16:47:21;;;;;;;;;;;;;;;;;;5095104;28;20328;-82
2022/06/17 16:49:47;;;;;;;;;;;;;;;;;;5078968;28;20263;-81
2022/06/17 16:52:12;;;;;;;;;;;;;;;;;;5086974;28;19911;-81
2022/06/17 16:54:38;;;;;;;;;;;;;;;;;;5105523;28;20366;-80
2022/06/17 16:57:03;;;;;;;;;;;;;;;;;;5087411;28;19908;-80
2022/06/17 16:59:29;;;;;;;;;;;;;;;;;;5095355;28;19918;-82
2022/06/17 17:01:54;;;;;;;;;;;;;;;;;;5113300;28;19911;-82
2022/06/17 17:04:20;;;;;;;;;;;;;;;;;;5087310;28;19912;-83